Time,TemperatureF,DewpointF,PressureIn,WindDirection,WindDirectionDegrees,WindSpeedMPH,WindSpeedGustMPH,Humidity,HourlyPrecipIn,Conditions,Clouds,dailyrainin,SoftwareType,DateUTC
2013-04-30 00:02:00,61.2,45.9,0.00,NW,308,4.8,11.3,57,0.00,,,0.00,WUHU216CR1000,2013-04-30 07:02:00,
2013-04-30 00:07:00,61.2,45.9,0.00,NW,308,4.8,11.3,57,0.00,,,0.00,WUHU216CR1000,2013-04-30 07:07:00,
2013-04-30 00:17:00,60.8,45.9,0.00,NW,324,4.9,10.6,58,0.00,,,0.00,WUHU216CR1000,2013-04-30 07:17:00,
2013-04-30 00:22:00,60.8,45.9,0.00,NW,324,4.9,10.6,58,0.00,,,0.00,WUHU216CR1000,2013-04-30 07:22:00,
2013-04-30 00:32:00,60.5,45.7,0.00,NW,326,5.5,12.5,58,0.00,,,0.00,WUHU216CR1000,2013-04-30 07:32:00,
2013-04-30 00:37:00,60.5,45.7,0.00,NW,326,5.5,12.5,58,0.00,,,0.00,WUHU216CR1000,2013-04-30 07:37:00,
2013-04-30 00:47:00,60.3,45.5,0.00,NW,321,5.8,11.4,58,0.00,,,0.00,WUHU216CR1000,2013-04-30 07:47:00,
2013-04-30 00:52:00,60.3,45.5,0.00,NW,321,5.8,11.4,58,0.00,,,0.00,WUHU216CR1000,2013-04-30 07:52:00,
2013-04-30 01:02:00,60.0,45.2,0.00,NW,309,6.5,12.2,58,0.00,,,0.00,WUHU216CR1000,2013-04-30 08:02:00,
2013-04-30 01:07:00,60.0,45.2,0.00,NW,309,6.5,12.2,58,0.00,,,0.00,WUHU216CR1000,2013-04-30 08:07:00,
2013-04-30 01:17:00,59.7,44.9,0.00,WNW,296,6.2,11.9,58,0.00,,,0.00,WUHU216CR1000,2013-04-30 08:17:00,
2013-04-30 01:22:00,59.7,44.9,0.00,WNW,296,6.2,11.9,58,0.00,,,0.00,WUHU216CR1000,2013-04-30 08:22:00,
2013-04-30 01:32:00,59.0,44.8,0.00,NW,310,4.2,8.7,59,0.00,,,0.00,WUHU216CR1000,2013-04-30 08:32:00,
2013-04-30 01:37:00,59.0,44.8,0.00,NW,310,4.2,8.7,59,0.00,,,0.00,WUHU216CR1000,2013-04-30 08:37:00,
2013-04-30 01:47:00,58.3,44.7,0.00,NW,320,3.7,10.0,61,0.00,,,0.00,WUHU216CR1000,2013-04-30 08:47:00,
2013-04-30 01:52:00,58.3,44.7,0.00,NW,320,3.7,10.0,61,0.00,,,0.00,WUHU216CR1000,2013-04-30 08:52:00,
2013-04-30 02:02:00,57.1,44.4,0.00,NNW,332,3.0,7.0,63,0.00,,,0.00,WUHU216CR1000,2013-04-30 09:02:00,
2013-04-30 02:07:00,57.1,44.4,0.00,NNW,332,3.0,7.0,63,0.00,,,0.00,WUHU216CR1000,2013-04-30 09:07:00,
2013-04-30 02:17:00,56.2,44.2,0.00,North,349,2.7,5.3,64,0.00,,,0.00,WUHU216CR1000,2013-04-30 09:17:00,
2013-04-30 02:22:00,56.2,44.2,0.00,North,349,2.7,5.3,64,0.00,,,0.00,WUHU216CR1000,2013-04-30 09:22:00,
2013-04-30 02:32:00,56.0,44.1,0.00,NNW,344,2.4,7.0,64,0.00,,,0.00,WUHU216CR1000,2013-04-30 09:32:00,
2013-04-30 02:37:00,56.0,44.1,0.00,NNW,344,2.4,7.0,64,0.00,,,0.00,WUHU216CR1000,2013-04-30 09:37:00,
2013-04-30 02:47:00,56.1,44.1,0.00,NNW,327,3.4,7.7,64,0.00,,,0.00,WUHU216CR1000,2013-04-30 09:47:00,
2013-04-30 02:52:00,56.1,44.1,0.00,NNW,327,3.4,7.7,64,0.00,,,0.00,WUHU216CR1000,2013-04-30 09:52:00,
2013-04-30 03:02:00,56.1,44.1,0.00,NNW,333,2.7,5.9,64,0.00,,,0.00,WUHU216CR1000,2013-04-30 10:02:00,
2013-04-30 03:07:00,56.1,44.1,0.00,NNW,333,2.7,5.9,64,0.00,,,0.00,WUHU216CR1000,2013-04-30 10:07:00,
2013-04-30 03:17:00,56.6,44.2,0.00,NNW,341,4.0,9.2,63,0.00,,,0.00,WUHU216CR1000,2013-04-30 10:17:00,
2013-04-30 03:22:00,56.6,44.2,0.00,NNW,341,4.0,9.2,63,0.00,,,0.00,WUHU216CR1000,2013-04-30 10:22:00,
2013-04-30 03:32:00,56.6,44.1,0.00,NNW,346,4.2,9.9,63,0.00,,,0.00,WUHU216CR1000,2013-04-30 10:32:00,
2013-04-30 03:37:00,56.6,44.1,0.00,NNW,346,4.2,9.9,63,0.00,,,0.00,WUHU216CR1000,2013-04-30 10:37:00,
2013-04-30 03:47:00,56.4,44.2,0.00,NNW,332,3.0,6.8,63,0.00,,,0.00,WUHU216CR1000,2013-04-30 10:47:00,
2013-04-30 03:52:00,56.4,44.2,0.00,NNW,332,3.0,6.8,63,0.00,,,0.00,WUHU216CR1000,2013-04-30 10:52:00,
2013-04-30 04:02:00,56.7,44.0,0.00,NW,318,3.4,6.6,63,0.00,,,0.00,WUHU216CR1000,2013-04-30 11:02:00,
2013-04-30 04:07:00,56.7,44.0,0.00,NW,318,3.4,6.6,63,0.00,,,0.00,WUHU216CR1000,2013-04-30 11:07:00,
2013-04-30 04:17:00,55.8,43.9,0.00,NNW,335,3.3,6.9,64,0.00,,,0.00,WUHU216CR1000,2013-04-30 11:17:00,
2013-04-30 04:22:00,55.8,43.9,0.00,NNW,335,3.3,6.9,64,0.00,,,0.00,WUHU216CR1000,2013-04-30 11:22:00,
2013-04-30 04:32:00,55.3,43.7,0.00,NNW,329,3.7,7.7,65,0.00,,,0.00,WUHU216CR1000,2013-04-30 11:32:00,
2013-04-30 04:37:00,55.3,43.7,0.00,NNW,329,3.7,7.7,65,0.00,,,0.00,WUHU216CR1000,2013-04-30 11:37:00,
2013-04-30 04:47:00,54.6,43.5,0.00,NNW,347,3.4,6.6,66,0.00,,,0.00,WUHU216CR1000,2013-04-30 11:47:00,
2013-04-30 04:52:00,54.6,43.5,0.00,NNW,347,3.4,6.6,66,0.00,,,0.00,WUHU216CR1000,2013-04-30 11:52:00,
2013-04-30 05:02:00,54.8,43.3,0.00,NNW,337,5.6,9.8,65,0.00,,,0.00,WUHU216CR1000,2013-04-30 12:02:00,
2013-04-30 05:07:00,54.8,43.3,0.00,NNW,337,5.6,9.8,65,0.00,,,0.00,WUHU216CR1000,2013-04-30 12:07:00,
2013-04-30 05:17:00,55.4,43.0,0.00,NNW,339,5.4,11.3,63,0.00,,,0.00,WUHU216CR1000,2013-04-30 12:17:00,
2013-04-30 05:22:00,55.4,43.0,0.00,NNW,339,5.4,11.3,63,0.00,,,0.00,WUHU216CR1000,2013-04-30 12:22:00,
2013-04-30 05:32:00,55.5,42.5,0.00,NNW,347,3.4,10.0,62,0.00,,,0.00,WUHU216CR1000,2013-04-30 12:32:00,
2013-04-30 05:37:00,55.5,42.5,0.00,NNW,347,3.4,10.0,62,0.00,,,0.00,WUHU216CR1000,2013-04-30 12:37:00,
2013-04-30 05:47:00,54.5,42.3,0.00,NE,54,4.3,7.7,63,0.00,,,0.00,WUHU216CR1000,2013-04-30 12:47:00,
2013-04-30 05:52:00,54.5,42.3,0.00,NE,54,4.3,7.7,63,0.00,,,0.00,WUHU216CR1000,2013-04-30 12:52:00,
2013-04-30 06:02:00,54.1,42.0,0.00,NNE,29,2.4,4.4,63,0.00,,,0.00,WUHU216CR1000,2013-04-30 13:02:00,
2013-04-30 06:07:00,54.1,42.0,0.00,NNE,29,2.4,4.4,63,0.00,,,0.00,WUHU216CR1000,2013-04-30 13:07:00,
2013-04-30 06:17:00,53.2,41.6,0.00,North,349,4.7,9.8,65,0.00,,,0.00,WUHU216CR1000,2013-04-30 13:17:00,
2013-04-30 06:22:00,53.2,41.6,0.00,North,349,4.7,9.8,65,0.00,,,0.00,WUHU216CR1000,2013-04-30 13:22:00,
2013-04-30 06:32:00,53.0,41.6,0.00,NNW,346,5.0,10.2,65,0.00,,,0.00,WUHU216CR1000,2013-04-30 13:32:00,
2013-04-30 06:37:00,53.0,41.6,0.00,NNW,346,5.0,10.2,65,0.00,,,0.00,WUHU216CR1000,2013-04-30 13:37:00,
2013-04-30 06:47:00,52.9,41.5,0.00,NNW,341,4.3,8.3,65,0.00,,,0.00,WUHU216CR1000,2013-04-30 13:47:00,
2013-04-30 06:52:00,52.9,41.5,0.00,NNW,341,4.3,8.3,65,0.00,,,0.00,WUHU216CR1000,2013-04-30 13:52:00,
2013-04-30 07:02:00,53.1,41.5,0.00,NNW,336,2.7,5.0,65,0.00,,,0.00,WUHU216CR1000,2013-04-30 14:02:00,
2013-04-30 07:07:00,53.1,41.5,0.00,NNW,336,2.7,5.0,65,0.00,,,0.00,WUHU216CR1000,2013-04-30 14:07:00,
2013-04-30 07:17:00,54.3,41.7,0.00,NW,325,2.8,6.8,62,0.00,,,0.00,WUHU216CR1000,2013-04-30 14:17:00,
2013-04-30 07:22:00,54.3,41.7,0.00,NW,325,2.8,6.8,62,0.00,,,0.00,WUHU216CR1000,2013-04-30 14:22:00,
2013-04-30 07:32:00,55.9,41.9,0.00,NNW,339,3.5,9.3,59,0.00,,,0.00,WUHU216CR1000,2013-04-30 14:32:00,
2013-04-30 07:37:00,55.9,41.9,0.00,NNW,339,3.5,9.3,59,0.00,,,0.00,WUHU216CR1000,2013-04-30 14:37:00,
2013-04-30 07:47:00,56.7,41.8,0.00,NNW,339,3.5,8.3,57,0.00,,,0.00,WUHU216CR1000,2013-04-30 14:47:00,
2013-04-30 07:52:00,56.7,41.8,0.00,NNW,339,3.5,8.3,57,0.00,,,0.00,WUHU216CR1000,2013-04-30 14:52:00,
2013-04-30 08:02:00,59.0,41.1,0.00,WNW,302,6.7,13.7,51,0.00,,,0.00,WUHU216CR1000,2013-04-30 15:02:00,
2013-04-30 08:07:00,59.0,41.1,0.00,WNW,302,6.7,13.7,51,0.00,,,0.00,WUHU216CR1000,2013-04-30 15:07:00,
2013-04-30 08:17:00,60.0,41.0,0.00,NW,309,4.8,9.8,49,0.00,,,0.00,WUHU216CR1000,2013-04-30 15:17:00,
2013-04-30 08:22:00,60.0,41.0,0.00,NW,309,4.8,9.8,49,0.00,,,0.00,WUHU216CR1000,2013-04-30 15:22:00,
2013-04-30 08:32:00,60.5,40.9,0.00,NNW,329,7.0,13.0,48,0.00,,,0.00,WUHU216CR1000,2013-04-30 15:32:00,
2013-04-30 08:37:00,60.5,40.9,0.00,NNW,329,7.0,13.0,48,0.00,,,0.00,WUHU216CR1000,2013-04-30 15:37:00,
2013-04-30 08:46:00,61.5,40.4,0.00,NNW,330,6.3,12.8,46,0.00,,,0.00,WUHU216CR1000,2013-04-30 15:46:00,
2013-04-30 08:51:00,61.5,40.4,0.00,NNW,330,6.3,12.8,46,0.00,,,0.00,WUHU216CR1000,2013-04-30 15:51:00,
2013-04-30 08:56:00,61.5,40.4,0.00,NNW,330,6.3,12.8,46,0.00,,,0.00,WUHU216CR1000,2013-04-30 15:56:00,
2013-04-30 09:02:00,63.5,39.9,0.00,NW,314,7.0,13.9,42,0.00,,,0.00,WUHU216CR1000,2013-04-30 16:02:00,
2013-04-30 09:07:00,63.5,39.9,0.00,NW,314,7.0,13.9,42,0.00,,,0.00,WUHU216CR1000,2013-04-30 16:07:00,
2013-04-30 09:17:00,64.8,38.7,0.00,NW,304,8.8,17.3,38,0.00,,,0.00,WUHU216CR1000,2013-04-30 16:17:00,
2013-04-30 09:22:00,64.8,38.7,0.00,NW,304,8.8,17.3,38,0.00,,,0.00,WUHU216CR1000,2013-04-30 16:22:00,
2013-04-30 09:32:00,65.9,38.0,0.00,WNW,300,10.1,18.3,36,0.00,,,0.00,WUHU216CR1000,2013-04-30 16:32:00,
2013-04-30 09:37:00,65.9,38.0,0.00,WNW,300,10.1,18.3,36,0.00,,,0.00,WUHU216CR1000,2013-04-30 16:37:00,
2013-04-30 09:47:00,67.3,38.2,0.00,NW,309,10.1,17.0,34,0.00,,,0.00,WUHU216CR1000,2013-04-30 16:47:00,
2013-04-30 09:52:00,67.3,38.2,0.00,NW,309,10.1,17.0,34,0.00,,,0.00,WUHU216CR1000,2013-04-30 16:52:00,
2013-04-30 10:02:00,67.9,37.5,0.00,NW,312,11.9,20.8,33,0.00,,,0.00,WUHU216CR1000,2013-04-30 17:02:00,
2013-04-30 10:07:00,67.9,37.5,0.00,NW,312,11.9,20.8,33,0.00,,,0.00,WUHU216CR1000,2013-04-30 17:07:00,
2013-04-30 10:17:00,69.2,38.3,0.00,NW,306,9.9,16.8,32,0.00,,,0.00,WUHU216CR1000,2013-04-30 17:17:00,
2013-04-30 10:22:00,69.2,38.3,0.00,NW,306,9.9,16.8,32,0.00,,,0.00,WUHU216CR1000,2013-04-30 17:22:00,
2013-04-30 10:32:00,70.1,38.6,0.00,NW,312,9.6,17.8,32,0.00,,,0.00,WUHU216CR1000,2013-04-30 17:32:00,
2013-04-30 10:37:00,70.1,38.6,0.00,NW,312,9.6,17.8,32,0.00,,,0.00,WUHU216CR1000,2013-04-30 17:37:00,
2013-04-30 10:47:00,71.3,37.9,0.00,NW,310,8.5,14.8,30,0.00,,,0.00,WUHU216CR1000,2013-04-30 17:47:00,
2013-04-30 10:52:00,71.3,37.9,0.00,NW,310,8.5,14.8,30,0.00,,,0.00,WUHU216CR1000,2013-04-30 17:52:00,
2013-04-30 11:02:00,72.5,37.5,0.00,NW,319,8.9,15.2,28,0.00,,,0.00,WUHU216CR1000,2013-04-30 18:02:00,
2013-04-30 11:07:00,72.5,37.5,0.00,NW,319,8.9,15.2,28,0.00,,,0.00,WUHU216CR1000,2013-04-30 18:07:00,
2013-04-30 11:17:00,73.4,38.1,0.00,NW,310,8.5,14.1,28,0.00,,,0.00,WUHU216CR1000,2013-04-30 18:17:00,
2013-04-30 11:22:00,73.4,38.1,0.00,NW,310,8.5,14.1,28,0.00,,,0.00,WUHU216CR1000,2013-04-30 18:22:00,
2013-04-30 11:32:00,74.3,38.4,0.00,NW,304,9.4,17.6,27,0.00,,,0.00,WUHU216CR1000,2013-04-30 18:32:00,
2013-04-30 11:37:00,74.3,38.4,0.00,NW,304,9.4,17.6,27,0.00,,,0.00,WUHU216CR1000,2013-04-30 18:37:00,
2013-04-30 11:47:00,75.3,39.1,0.00,NW,309,7.7,14.8,27,0.00,,,0.00,WUHU216CR1000,2013-04-30 18:47:00,
2013-04-30 11:52:00,75.3,39.1,0.00,NW,309,7.7,14.8,27,0.00,,,0.00,WUHU216CR1000,2013-04-30 18:52:00,
2013-04-30 12:02:00,76.1,39.6,0.00,NW,313,7.3,12.5,27,0.00,,,0.00,WUHU216CR1000,2013-04-30 19:02:00,
2013-04-30 12:07:00,76.1,39.6,0.00,NW,313,7.3,12.5,27,0.00,,,0.00,WUHU216CR1000,2013-04-30 19:07:00,
2013-04-30 12:17:00,77.1,42.9,0.00,West,260,5.8,11.8,30,0.00,,,0.00,WUHU216CR1000,2013-04-30 19:17:00,
2013-04-30 12:22:00,77.1,42.9,0.00,West,260,5.8,11.8,30,0.00,,,0.00,WUHU216CR1000,2013-04-30 19:22:00,
2013-04-30 12:32:00,78.5,42.6,0.00,West,277,4.9,10.4,28,0.00,,,0.00,WUHU216CR1000,2013-04-30 19:32:00,
2013-04-30 12:37:00,78.5,42.6,0.00,West,277,4.9,10.4,28,0.00,,,0.00,WUHU216CR1000,2013-04-30 19:37:00,
2013-04-30 12:47:00,79.4,43.2,0.00,WNW,285,4.5,8.8,28,0.00,,,0.00,WUHU216CR1000,2013-04-30 19:47:00,
2013-04-30 12:52:00,79.4,43.2,0.00,WNW,285,4.5,8.8,28,0.00,,,0.00,WUHU216CR1000,2013-04-30 19:52:00,
2013-04-30 13:02:00,80.3,42.8,0.00,NW,312,5.3,12.5,27,0.00,,,0.00,WUHU216CR1000,2013-04-30 20:02:00,
2013-04-30 13:07:00,80.3,42.8,0.00,NW,312,5.3,12.5,27,0.00,,,0.00,WUHU216CR1000,2013-04-30 20:07:00,
2013-04-30 13:17:00,81.4,43.1,0.00,WNW,298,6.5,11.2,26,0.00,,,0.00,WUHU216CR1000,2013-04-30 20:17:00,
2013-04-30 13:22:00,81.4,43.1,0.00,WNW,298,6.5,11.2,26,0.00,,,0.00,WUHU216CR1000,2013-04-30 20:22:00,
2013-04-30 13:32:00,81.9,43.0,0.00,NW,306,7.1,13.0,25,0.00,,,0.00,WUHU216CR1000,2013-04-30 20:32:00,
2013-04-30 13:37:00,81.9,43.0,0.00,NW,306,7.1,13.0,25,0.00,,,0.00,WUHU216CR1000,2013-04-30 20:37:00,
2013-04-30 13:47:00,82.6,42.6,0.00,NW,305,6.9,12.8,24,0.00,,,0.00,WUHU216CR1000,2013-04-30 20:47:00,
2013-04-30 13:52:00,82.6,42.6,0.00,NW,305,6.9,12.8,24,0.00,,,0.00,WUHU216CR1000,2013-04-30 20:52:00,
2013-04-30 14:02:00,82.9,42.2,0.00,WNW,300,7.9,12.9,24,0.00,,,0.00,WUHU216CR1000,2013-04-30 21:02:00,
2013-04-30 14:07:00,82.9,42.2,0.00,WNW,300,7.9,12.9,24,0.00,,,0.00,WUHU216CR1000,2013-04-30 21:07:00,
2013-04-30 14:17:00,83.0,41.8,0.00,WNW,296,8.8,14.6,23,0.00,,,0.00,WUHU216CR1000,2013-04-30 21:17:00,
2013-04-30 14:22:00,83.0,41.8,0.00,WNW,296,8.8,14.6,23,0.00,,,0.00,WUHU216CR1000,2013-04-30 21:22:00,
2013-04-30 14:32:00,83.3,42.0,0.00,WNW,282,9.4,16.1,23,0.00,,,0.00,WUHU216CR1000,2013-04-30 21:32:00,
2013-04-30 14:37:00,83.3,42.0,0.00,WNW,282,9.4,16.1,23,0.00,,,0.00,WUHU216CR1000,2013-04-30 21:37:00,
2013-04-30 14:47:00,84.4,43.4,0.00,West,276,9.0,18.3,24,0.00,,,0.00,WUHU216CR1000,2013-04-30 21:47:00,
2013-04-30 14:52:00,84.4,43.4,0.00,West,276,9.0,18.3,24,0.00,,,0.00,WUHU216CR1000,2013-04-30 21:52:00,
2013-04-30 15:02:00,84.7,42.6,0.00,WNW,282,10.9,17.6,23,0.00,,,0.00,WUHU216CR1000,2013-04-30 22:02:00,
2013-04-30 15:07:00,84.7,42.6,0.00,WNW,282,10.9,17.6,23,0.00,,,0.00,WUHU216CR1000,2013-04-30 22:07:00,
2013-04-30 15:17:00,84.8,41.3,0.00,WNW,297,11.9,18.1,22,0.00,,,0.00,WUHU216CR1000,2013-04-30 22:17:00,
2013-04-30 15:22:00,84.8,41.3,0.00,WNW,297,11.9,18.1,22,0.00,,,0.00,WUHU216CR1000,2013-04-30 22:22:00,
2013-04-30 15:32:00,84.0,40.2,0.00,WNW,297,12.0,18.4,21,0.00,,,0.00,WUHU216CR1000,2013-04-30 22:32:00,
2013-04-30 15:37:00,84.0,40.2,0.00,WNW,297,12.0,18.4,21,0.00,,,0.00,WUHU216CR1000,2013-04-30 22:37:00,
2013-04-30 15:47:00,83.4,40.9,0.00,WNW,302,13.3,20.5,22,0.00,,,0.00,WUHU216CR1000,2013-04-30 22:47:00,
2013-04-30 15:52:00,83.4,40.9,0.00,WNW,302,13.3,20.5,22,0.00,,,0.00,WUHU216CR1000,2013-04-30 22:52:00,
2013-04-30 16:02:00,83.9,41.2,0.00,NW,309,12.5,20.6,22,0.00,,,0.00,WUHU216CR1000,2013-04-30 23:02:00,
2013-04-30 16:07:00,83.9,41.2,0.00,NW,309,12.5,20.6,22,0.00,,,0.00,WUHU216CR1000,2013-04-30 23:07:00,
2013-04-30 16:17:00,84.1,41.7,0.00,NW,306,11.8,19.8,22,0.00,,,0.00,WUHU216CR1000,2013-04-30 23:17:00,
2013-04-30 16:22:00,84.1,41.7,0.00,NW,306,11.8,19.8,22,0.00,,,0.00,WUHU216CR1000,2013-04-30 23:22:00,
2013-04-30 16:32:00,84.3,41.5,0.00,WNW,289,13.4,21.0,22,0.00,,,0.00,WUHU216CR1000,2013-04-30 23:32:00,
2013-04-30 16:37:00,84.3,41.5,0.00,WNW,289,13.4,21.0,22,0.00,,,0.00,WUHU216CR1000,2013-04-30 23:37:00,
2013-04-30 16:47:00,84.5,41.2,0.00,WNW,286,13.3,25.0,22,0.00,,,0.00,WUHU216CR1000,2013-04-30 23:47:00,
2013-04-30 16:52:00,84.5,41.2,0.00,WNW,286,13.3,25.0,22,0.00,,,0.00,WUHU216CR1000,2013-04-30 23:52:00,
2013-04-30 17:02:00,84.5,41.6,0.00,WNW,291,12.2,18.5,22,0.00,,,0.00,WUHU216CR1000,2013-05-01 00:02:00,
2013-04-30 17:07:00,84.5,41.6,0.00,WNW,291,12.2,18.5,22,0.00,,,0.00,WUHU216CR1000,2013-05-01 00:07:00,
2013-04-30 17:17:00,84.1,41.1,0.00,NW,309,12.9,21.8,22,0.00,,,0.00,WUHU216CR1000,2013-05-01 00:17:00,
2013-04-30 17:22:00,84.1,41.1,0.00,NW,309,12.9,21.8,22,0.00,,,0.00,WUHU216CR1000,2013-05-01 00:22:00,
2013-04-30 17:32:00,83.5,41.3,0.00,WNW,303,12.3,21.8,23,0.00,,,0.00,WUHU216CR1000,2013-05-01 00:32:00,
2013-04-30 17:37:00,83.5,41.3,0.00,WNW,303,12.3,21.8,23,0.00,,,0.00,WUHU216CR1000,2013-05-01 00:37:00,
2013-04-30 17:47:00,83.0,41.1,0.00,NW,305,13.4,21.8,23,0.00,,,0.00,WUHU216CR1000,2013-05-01 00:47:00,
2013-04-30 17:52:00,83.0,41.1,0.00,NW,305,13.4,21.8,23,0.00,,,0.00,WUHU216CR1000,2013-05-01 00:52:00,
2013-04-30 18:02:00,82.7,41.5,0.00,NW,305,13.6,21.8,23,0.00,,,0.00,WUHU216CR1000,2013-05-01 01:02:00,
2013-04-30 18:07:00,82.7,41.5,0.00,NW,305,13.6,21.8,23,0.00,,,0.00,WUHU216CR1000,2013-05-01 01:07:00,
2013-04-30 18:17:00,82.4,42.2,0.00,WNW,296,12.3,18.7,24,0.00,,,0.00,WUHU216CR1000,2013-05-01 01:17:00,
2013-04-30 18:22:00,82.4,42.2,0.00,WNW,296,12.3,18.7,24,0.00,,,0.00,WUHU216CR1000,2013-05-01 01:22:00,
2013-04-30 18:32:00,81.9,42.8,0.00,WNW,297,11.3,19.8,25,0.00,,,0.00,WUHU216CR1000,2013-05-01 01:32:00,
2013-04-30 18:37:00,81.9,42.8,0.00,WNW,297,11.3,19.8,25,0.00,,,0.00,WUHU216CR1000,2013-05-01 01:37:00,
2013-04-30 18:47:00,81.1,42.5,0.00,WNW,296,11.0,18.7,26,0.00,,,0.00,WUHU216CR1000,2013-05-01 01:47:00,
2013-04-30 18:52:00,81.1,42.5,0.00,WNW,296,11.0,18.7,26,0.00,,,0.00,WUHU216CR1000,2013-05-01 01:52:00,
2013-04-30 19:02:00,80.2,42.9,0.00,WNW,286,10.7,16.1,27,0.00,,,0.00,WUHU216CR1000,2013-05-01 02:02:00,
2013-04-30 19:07:00,80.2,42.9,0.00,WNW,286,10.7,16.1,27,0.00,,,0.00,WUHU216CR1000,2013-05-01 02:07:00,
2013-04-30 19:17:00,79.1,42.9,0.00,West,281,10.4,15.8,28,0.00,,,0.00,WUHU216CR1000,2013-05-01 02:17:00,
2013-04-30 19:22:00,79.1,42.9,0.00,West,281,10.4,15.8,28,0.00,,,0.00,WUHU216CR1000,2013-05-01 02:22:00,
2013-04-30 19:32:00,78.3,41.9,0.00,WNW,299,9.5,16.6,27,0.00,,,0.00,WUHU216CR1000,2013-05-01 02:32:00,
2013-04-30 19:37:00,78.3,41.9,0.00,WNW,299,9.5,16.6,27,0.00,,,0.00,WUHU216CR1000,2013-05-01 02:37:00,
2013-04-30 19:47:00,77.4,42.0,0.00,NW,311,8.4,14.6,28,0.00,,,0.00,WUHU216CR1000,2013-05-01 02:47:00,
2013-04-30 19:52:00,77.4,42.0,0.00,NW,311,8.4,14.6,28,0.00,,,0.00,WUHU216CR1000,2013-05-01 02:52:00,
2013-04-30 20:02:00,75.7,42.2,0.00,NW,323,7.2,12.6,30,0.00,,,0.00,WUHU216CR1000,2013-05-01 03:02:00,
2013-04-30 20:07:00,75.7,42.2,0.00,NW,323,7.2,12.6,30,0.00,,,0.00,WUHU216CR1000,2013-05-01 03:07:00,
2013-04-30 20:17:00,74.5,42.0,0.00,NW,316,7.9,14.7,31,0.00,,,0.00,WUHU216CR1000,2013-05-01 03:17:00,
2013-04-30 20:22:00,74.5,42.0,0.00,NW,316,7.9,14.7,31,0.00,,,0.00,WUHU216CR1000,2013-05-01 03:22:00,
2013-04-30 20:32:00,73.8,42.0,0.00,NW,311,8.9,14.0,32,0.00,,,0.00,WUHU216CR1000,2013-05-01 03:32:00,
2013-04-30 20:37:00,73.8,42.0,0.00,NW,311,8.9,14.0,32,0.00,,,0.00,WUHU216CR1000,2013-05-01 03:37:00,
2013-04-30 20:47:00,72.3,41.9,0.00,NNW,331,5.6,10.6,33,0.00,,,0.00,WUHU216CR1000,2013-05-01 03:47:00,
2013-04-30 20:52:00,72.3,41.9,0.00,NNW,331,5.6,10.6,33,0.00,,,0.00,WUHU216CR1000,2013-05-01 03:52:00,
2013-04-30 21:02:00,70.6,42.0,0.00,NNW,331,5.6,11.2,36,0.00,,,0.00,WUHU216CR1000,2013-05-01 04:02:00,
2013-04-30 21:07:00,70.6,42.0,0.00,NNW,331,5.6,11.2,36,0.00,,,0.00,WUHU216CR1000,2013-05-01 04:07:00,
2013-04-30 21:17:00,69.4,41.9,0.00,NW,326,3.5,7.3,37,0.00,,,0.00,WUHU216CR1000,2013-05-01 04:17:00,
2013-04-30 21:22:00,69.4,41.9,0.00,NW,326,3.5,7.3,37,0.00,,,0.00,WUHU216CR1000,2013-05-01 04:22:00,
2013-04-30 21:32:00,67.7,41.8,0.00,WNW,290,2.8,6.5,39,0.00,,,0.00,WUHU216CR1000,2013-05-01 04:32:00,
2013-04-30 21:37:00,67.7,41.8,0.00,WNW,290,2.8,6.5,39,0.00,,,0.00,WUHU216CR1000,2013-05-01 04:37:00,
2013-04-30 21:47:00,64.2,41.9,0.00,WSW,246,4.0,6.4,44,0.00,,,0.00,WUHU216CR1000,2013-05-01 04:47:00,
2013-04-30 21:52:00,64.2,41.9,0.00,WSW,246,4.0,6.4,44,0.00,,,0.00,WUHU216CR1000,2013-05-01 04:52:00,
2013-04-30 22:02:00,63.4,41.7,0.00,South,191,2.3,4.3,45,0.00,,,0.00,WUHU216CR1000,2013-05-01 05:02:00,
2013-04-30 22:07:00,63.4,41.7,0.00,South,191,2.3,4.3,45,0.00,,,0.00,WUHU216CR1000,2013-05-01 05:07:00,
2013-04-30 22:17:00,63.4,41.3,0.00,SSW,203,3.8,7.5,44,0.00,,,0.00,WUHU216CR1000,2013-05-01 05:17:00,
2013-04-30 22:22:00,63.4,41.3,0.00,SSW,203,3.8,7.5,44,0.00,,,0.00,WUHU216CR1000,2013-05-01 05:22:00,
2013-04-30 22:32:00,65.5,40.9,0.00,West,277,4.9,9.2,41,0.00,,,0.00,WUHU216CR1000,2013-05-01 05:32:00,
2013-04-30 22:37:00,65.5,40.9,0.00,West,277,4.9,9.2,41,0.00,,,0.00,WUHU216CR1000,2013-05-01 05:37:00,
2013-04-30 22:47:00,63.4,41.0,0.00,SW,220,2.4,5.0,44,0.00,,,0.00,WUHU216CR1000,2013-05-01 05:47:00,
2013-04-30 22:52:00,63.4,41.0,0.00,SW,220,2.4,5.0,44,0.00,,,0.00,WUHU216CR1000,2013-05-01 05:52:00,
2013-04-30 23:02:00,60.0,41.3,0.00,SSE,147,1.8,5.5,50,0.00,,,0.00,WUHU216CR1000,2013-05-01 06:02:00,
2013-04-30 23:07:00,60.0,41.3,0.00,SSE,147,1.8,5.5,50,0.00,,,0.00,WUHU216CR1000,2013-05-01 06:07:00,
2013-04-30 23:17:00,58.9,41.4,0.00,SSW,202,2.6,5.3,52,0.00,,,0.00,WUHU216CR1000,2013-05-01 06:17:00,
2013-04-30 23:22:00,58.9,41.4,0.00,SSW,202,2.6,5.3,52,0.00,,,0.00,WUHU216CR1000,2013-05-01 06:22:00,
2013-04-30 23:32:00,57.7,40.9,0.00,South,190,2.3,4.7,53,0.00,,,0.00,WUHU216CR1000,2013-05-01 06:32:00,
2013-04-30 23:37:00,57.7,40.9,0.00,South,190,2.3,4.7,53,0.00,,,0.00,WUHU216CR1000,2013-05-01 06:37:00,
2013-04-30 23:47:00,55.9,40.9,0.00,SE,134,2.7,5.8,57,0.00,,,0.00,WUHU216CR1000,2013-05-01 06:47:00,
2013-04-30 23:52:00,55.9,40.9,0.00,SE,134,2.7,5.8,57,0.00,,,0.00,WUHU216CR1000,2013-05-01 06:52:00,
2013-04-30 23:57:00,55.9,40.9,0.00,SE,134,2.7,5.8,57,0.00,,,0.00,WUHU216CR1000,2013-05-01 06:57:00,